Time;durP1;ratioP1;P1;durP2;ratioP2;P2;SDS_P1;SDS_P2;PMS_P1;PMS_P2;Temp;Humidity;BMP_temperature;BMP_pressure;BME280_temperature;BME280_humidity;BME280_pressure;Samples;Min_cycle;Max_cycle;Signal;HPM_P1;HPM_P2
2022/10/16 00:01:14;;;;;;;;;;;;;;;16.82;59.25;100037.44;4370474;32;33890;-90
2022/10/16 00:03:45;;;;;;;;;;;;;;;17.00;58.77;100027.22;4365556;32;34078;-90
2022/10/16 00:06:19;;;;;;;;;;;;;;;16.97;58.99;100025.56;4362179;32;33898;-87
2022/10/16 00:08:49;;;;;;;;;;;;;;;16.82;59.45;100026.09;4365971;32;32451;-91
2022/10/16 00:11:18;;;;;;;;;;;;;;;16.90;59.27;100024.06;4369127;32;34669;-91
2022/10/16 00:16:22;;;;;;;;;;;;;;;16.82;59.37;100024.31;4366772;32;33672;-92
2022/10/16 00:18:53;;;;;;;;;;;;;;;16.60;59.96;100028.53;4366799;32;36018;-88
2022/10/16 00:21:23;;;;;;;;;;;;;;;16.75;59.67;100021.94;4372275;32;34261;-88
2022/10/16 00:24:14;;;;;;;;;;;;;;;16.56;59.91;100024.31;4373737;32;34459;-89
2022/10/16 00:26:43;;;;;;;;;;;;;;;16.39;60.29;100038.78;4368171;32;32643;-87
2022/10/16 00:29:20;;;;;;;;;;;;;;;16.55;59.87;100035.66;4369901;32;34537;-87
2022/10/16 00:31:49;;;;;;;;;;;;;;;16.47;59.81;100035.91;4365701;32;33541;-91
2022/10/16 00:34:20;;;;;;;;;;;;;;;16.69;58.75;100038.69;4368346;32;33579;-90
2022/10/16 00:36:50;;;;;;;;;;;;;;;16.50;59.28;100046.28;4366176;32;31738;-88
2022/10/16 00:39:19;;;;;;;;;;;;;;;16.25;59.79;100043.59;4367849;32;33646;-89
2022/10/16 00:41:48;;;;;;;;;;;;;;;16.37;59.35;100050.22;4362807;32;33622;-88
2022/10/16 00:44:35;;;;;;;;;;;;;;;16.18;59.58;100045.53;4367275;32;33758;-90
2022/10/16 00:47:05;;;;;;;;;;;;;;;16.10;59.95;100044.91;4368827;32;33640;-88
2022/10/16 00:49:34;;;;;;;;;;;;;;;16.19;59.54;100049.03;4365476;32;33931;-88
2022/10/16 00:52:07;;;;;;;;;;;;;;;16.10;59.76;100047.53;4371728;32;33825;-88
2022/10/16 00:54:38;;;;;;;;;;;;;;;15.99;60.06;100044.37;4364361;32;34689;-88
2022/10/16 00:57:10;;;;;;;;;;;;;;;16.16;59.65;100052.59;4366326;32;32987;-90
2022/10/16 00:59:40;;;;;;;;;;;;;;;16.13;59.75;100059.69;4368040;32;33125;-91
2022/10/16 01:02:11;;;;;;;;;;;;;;;16.10;59.70;100060.63;4371985;32;34238;-88
2022/10/16 01:04:40;;;;;;;;;;;;;;;15.97;59.91;100057.53;4359403;32;33794;-87
2022/10/16 01:07:15;;;;;;;;;;;;;;;15.91;60.24;100059.47;4357575;32;33264;-88
2022/10/16 01:09:52;;;;;;;;;;;;;;;15.86;60.35;100066.59;4376775;32;34931;-88
2022/10/16 01:12:23;;;;;;;;;;;;;;;15.77;60.37;100067.69;4365680;32;34604;-88
2022/10/16 01:14:53;;;;;;;;;;;;;;;15.85;60.25;100070.09;4356271;32;32749;-88
2022/10/16 01:17:23;;;;;;;;;;;;;;;15.85;59.99;100076.19;4356993;32;33838;-89
2022/10/16 01:19:57;;;;;;;;;;;;;;;15.67;60.41;100069.69;4363838;32;35376;-90
2022/10/16 01:22:29;;;;;;;;;;;;;;;15.67;60.30;100077.53;4375694;32;33713;-88
2022/10/16 01:24:58;;;;;;;;;;;;;;;15.65;60.26;100074.09;4372564;32;33976;-88
2022/10/16 01:27:28;;;;;;;;;;;;;;;15.59;60.34;100074.28;4372194;32;32963;-88
2022/10/16 01:30:00;;;;;;;;;;;;;;;15.54;60.55;100078.78;4358920;32;34627;-88
2022/10/16 01:32:30;;;;;;;;;;;;;;;15.53;60.43;100082.28;4357258;32;33697;-87
2022/10/16 01:35:01;;;;;;;;;;;;;;;15.37;60.69;100076.62;4362178;32;34035;-89
2022/10/16 01:37:36;;;;;;;;;;;;;;;15.45;60.34;100082.50;4364240;32;33619;-86
2022/10/16 01:40:11;;;;;;;;;;;;;;;15.40;60.36;100081.75;4371115;32;34520;-87
2022/10/16 01:42:41;;;;;;;;;;;;;;;15.27;60.67;100081.22;4372089;32;33560;-87
2022/10/16 01:45:17;;;;;;;;;;;;;;;15.27;60.65;100080.34;4369448;32;33415;-90
2022/10/16 01:47:48;;;;;;;;;;;;;;;15.30;60.47;100088.13;4374203;32;34200;-88
2022/10/16 01:50:17;;;;;;;;;;;;;;;15.24;60.59;100081.28;4371346;32;34400;-87
2022/10/16 01:52:47;;;;;;;;;;;;;;;14.93;61.44;100086.44;4369690;32;33024;-91
2022/10/16 01:55:17;;;;;;;;;;;;;;;15.08;61.14;100082.59;4372277;32;34418;-88
2022/10/16 01:57:49;;;;;;;;;;;;;;;15.06;61.04;100082.62;4374455;32;33256;-87
2022/10/16 02:00:17;;;;;;;;;;;;;;;14.97;61.34;100089.84;4368402;32;32899;-91
2022/10/16 02:02:52;;;;;;;;;;;;;;;14.92;61.32;100090.81;4369554;32;32689;-89
2022/10/16 02:05:21;;;;;;;;;;;;;;;14.70;61.81;100087.87;4369596;32;34548;-90
2022/10/16 02:07:50;;;;;;;;;;;;;;;14.59;62.06;100094.22;4370353;32;32953;-87
2022/10/16 02:10:19;;;;;;;;;;;;;;;14.39;62.76;100097.25;4373810;32;33173;-87
2022/10/16 02:12:58;;;;;;;;;;;;;;;14.47;62.34;100097.94;4364989;32;34607;-88
2022/10/16 02:15:27;;;;;;;;;;;;;;;14.55;62.11;100098.69;4371683;32;34828;-92
2022/10/16 02:18:00;;;;;;;;;;;;;;;14.68;61.52;100107.06;4369340;32;32876;-90
2022/10/16 02:20:30;;;;;;;;;;;;;;;14.73;61.28;100105.22;4375166;32;33608;-87
2022/10/16 02:23:04;;;;;;;;;;;;;;;14.69;61.29;100103.56;4375581;32;34606;-88
2022/10/16 02:25:37;;;;;;;;;;;;;;;14.50;62.14;100097.91;4369430;32;33982;-88
2022/10/16 02:28:09;;;;;;;;;;;;;;;14.52;61.79;100106.53;4371348;32;33938;-87
2022/10/16 02:30:42;;;;;;;;;;;;;;;14.51;61.67;100103.06;4374140;32;34613;-88
2022/10/16 02:33:11;;;;;;;;;;;;;;;14.63;61.37;100103.72;4372823;32;34886;-87
2022/10/16 02:35:40;;;;;;;;;;;;;;;14.58;61.43;100110.81;4371223;32;34334;-90
2022/10/16 02:38:10;;;;;;;;;;;;;;;14.46;61.58;100109.28;4366647;32;33656;-90
2022/10/16 02:40:42;;;;;;;;;;;;;;;14.46;61.58;100112.75;4372167;32;34637;-89
2022/10/16 02:43:12;;;;;;;;;;;;;;;14.47;61.44;100124.94;4370620;32;34109;-88
2022/10/16 02:45:43;;;;;;;;;;;;;;;14.48;61.47;100118.81;4375520;32;33908;-87
2022/10/16 02:48:12;;;;;;;;;;;;;;;14.56;61.11;100123.88;4369809;32;33209;-89
2022/10/16 02:50:41;;;;;;;;;;;;;;;14.49;61.42;100122.25;4368631;32;33401;-88
2022/10/16 02:53:12;;;;;;;;;;;;;;;14.39;61.63;100119.00;4370739;32;34873;-92
2022/10/16 02:55:41;;;;;;;;;;;;;;;14.38;61.75;100117.28;4375049;32;33119;-87
2022/10/16 02:58:12;;;;;;;;;;;;;;;14.40;61.74;100127.69;4369890;32;33006;-89
2022/10/16 03:00:48;;;;;;;;;;;;;;;14.35;61.77;100125.16;4369457;32;34057;-93
2022/10/16 03:03:16;;;;;;;;;;;;;;;14.33;61.84;100121.75;4369203;32;33774;-89
2022/10/16 03:05:46;;;;;;;;;;;;;;;14.24;62.09;100128.03;4370123;32;34285;-90
2022/10/16 03:08:23;;;;;;;;;;;;;;;14.13;62.20;100126.53;4364155;32;32994;-89
2022/10/16 03:11:00;;;;;;;;;;;;;;;14.21;61.85;100120.28;4370724;32;33953;-89
2022/10/16 03:13:33;;;;;;;;;;;;;;;14.22;61.72;100121.97;4370877;32;34273;-87
2022/10/16 03:16:02;;;;;;;;;;;;;;;14.24;61.59;100129.78;4364503;32;35062;-89
2022/10/16 03:18:30;;;;;;;;;;;;;;;14.13;61.93;100129.13;4364852;32;32586;-87
2022/10/16 03:21:00;;;;;;;;;;;;;;;14.18;61.65;100125.56;4374616;32;33337;-87
2022/10/16 03:23:29;;;;;;;;;;;;;;;14.08;61.99;100143.13;4368978;32;34685;-89
2022/10/16 03:26:01;;;;;;;;;;;;;;;14.07;61.91;100143.19;4370275;32;34409;-91
2022/10/16 03:28:32;;;;;;;;;;;;;;;14.03;61.83;100141.50;4369842;32;32626;-87
2022/10/16 03:31:06;;;;;;;;;;;;;;;13.94;61.90;100136.47;4375008;32;33263;-90
2022/10/16 03:33:37;;;;;;;;;;;;;;;14.04;61.60;100138.87;4366074;32;34030;-86
2022/10/16 03:36:08;;;;;;;;;;;;;;;13.98;61.72;100140.75;4369577;32;33704;-91
2022/10/16 03:38:40;;;;;;;;;;;;;;;13.94;61.98;100153.00;4369186;32;33463;-89
2022/10/16 03:41:08;;;;;;;;;;;;;;;13.87;62.16;100154.00;4370452;32;33744;-87
2022/10/16 03:43:44;;;;;;;;;;;;;;;13.83;62.17;100147.12;4370917;32;33519;-91
2022/10/16 03:46:12;;;;;;;;;;;;;;;13.93;62.05;100155.63;4370761;32;33509;-89
2022/10/16 03:48:44;;;;;;;;;;;;;;;13.82;62.32;100151.50;4365581;32;33384;-87
2022/10/16 03:51:13;;;;;;;;;;;;;;;13.81;62.57;100148.91;4368555;32;33845;-92
2022/10/16 03:53:45;;;;;;;;;;;;;;;13.82;62.38;100155.81;4374674;32;34256;-87
2022/10/16 03:56:14;;;;;;;;;;;;;;;13.77;62.61;100153.31;4374922;32;34647;-89
2022/10/16 03:58:47;;;;;;;;;;;;;;;13.78;62.37;100162.00;4372178;32;33178;-87
2022/10/16 04:01:16;;;;;;;;;;;;;;;13.85;62.26;100161.00;4373290;32;34375;-88
2022/10/16 04:03:45;;;;;;;;;;;;;;;13.88;61.87;100166.16;4371457;32;34624;-88
2022/10/16 04:06:14;;;;;;;;;;;;;;;13.77;62.20;100162.87;4375932;32;33973;-88
2022/10/16 04:08:51;;;;;;;;;;;;;;;13.57;62.63;100169.31;4369246;32;33166;-88
2022/10/16 04:11:20;;;;;;;;;;;;;;;13.68;62.33;100166.53;4372705;32;33782;-89
2022/10/16 04:13:50;;;;;;;;;;;;;;;13.75;62.07;100169.84;4359279;32;32712;-90
2022/10/16 04:16:18;;;;;;;;;;;;;;;13.65;62.13;100177.88;4365684;32;34133;-88
2022/10/16 04:18:47;;;;;;;;;;;;;;;13.80;61.76;100181.09;4374522;32;33120;-87
2022/10/16 04:21:16;;;;;;;;;;;;;;;13.63;62.27;100170.97;4371877;32;32652;-88
2022/10/16 04:23:45;;;;;;;;;;;;;;;13.68;62.03;100182.16;4363689;32;33675;-87
2022/10/16 04:26:17;;;;;;;;;;;;;;;13.62;62.19;100180.50;4359866;32;33835;-87
2022/10/16 04:28:46;;;;;;;;;;;;;;;13.62;62.01;100177.91;4360931;32;30349;-87
2022/10/16 04:31:33;;;;;;;;;;;;;;;13.59;62.16;100175.38;4361554;32;34208;-90
2022/10/16 04:34:06;;;;;;;;;;;;;;;13.43;62.66;100173.91;4361053;32;33570;-87
2022/10/16 04:36:38;;;;;;;;;;;;;;;13.48;62.41;100176.44;4364100;32;34448;-88
2022/10/16 04:39:06;;;;;;;;;;;;;;;13.51;62.39;100176.41;4354491;32;33147;-87
2022/10/16 04:41:36;;;;;;;;;;;;;;;13.52;62.44;100171.16;4362925;32;33680;-90
2022/10/16 04:44:07;;;;;;;;;;;;;;;13.53;62.23;100172.87;4358686;32;34030;-87
2022/10/16 04:46:39;;;;;;;;;;;;;;;13.41;62.55;100178.31;4358202;32;33197;-87
2022/10/16 04:49:08;;;;;;;;;;;;;;;13.55;62.12;100178.91;4360664;32;32492;-87
2022/10/16 04:51:37;;;;;;;;;;;;;;;13.46;62.26;100186.91;4372309;32;34917;-88
2022/10/16 04:54:09;;;;;;;;;;;;;;;13.44;62.44;100194.75;4376183;32;33625;-91
2022/10/16 04:56:47;;;;;;;;;;;;;;;13.48;62.23;100190.31;4370146;32;33568;-88
2022/10/16 04:59:15;;;;;;;;;;;;;;;13.30;62.84;100185.44;4372030;32;32532;-86
2022/10/16 05:01:45;;;;;;;;;;;;;;;13.40;62.40;100190.44;4363765;32;33811;-88
2022/10/16 05:04:15;;;;;;;;;;;;;;;13.45;62.08;100188.63;4361714;32;33401;-87
2022/10/16 05:06:48;;;;;;;;;;;;;;;13.29;62.33;100186.31;4368644;32;32600;-89
2022/10/16 05:09:17;;;;;;;;;;;;;;;13.27;62.53;100185.47;4362233;32;33800;-87
2022/10/16 05:11:47;;;;;;;;;;;;;;;13.24;62.49;100197.66;4368242;32;33678;-87
2022/10/16 05:14:15;;;;;;;;;;;;;;;13.06;62.90;100199.69;4357350;32;33896;-87
2022/10/16 05:16:50;;;;;;;;;;;;;;;13.25;62.01;100195.91;4361894;32;34079;-87
2022/10/16 05:19:19;;;;;;;;;;;;;;;13.37;61.58;100200.94;4356135;32;31715;-91
2022/10/16 05:21:58;;;;;;;;;;;;;;;13.11;62.45;100206.53;4357269;32;33831;-89
2022/10/16 05:24:35;;;;;;;;;;;;;;;13.21;62.23;100204.62;4357189;32;33989;-90
2022/10/16 05:27:04;;;;;;;;;;;;;;;13.24;62.10;100207.22;4358302;32;34436;-90
2022/10/16 05:29:35;;;;;;;;;;;;;;;13.18;62.45;100210.75;4366842;32;33285;-86
2022/10/16 05:32:05;;;;;;;;;;;;;;;13.26;62.23;100207.16;4372162;32;35497;-88
2022/10/16 05:34:43;;;;;;;;;;;;;;;13.15;62.67;100210.81;4359488;32;35075;-90
2022/10/16 05:37:14;;;;;;;;;;;;;;;12.96;63.29;100206.75;4360542;32;33794;-87
2022/10/16 05:39:46;;;;;;;;;;;;;;;13.05;63.40;100213.56;4375375;32;33880;-85
2022/10/16 05:42:18;;;;;;;;;;;;;;;13.09;63.64;100216.09;4371144;32;33505;-86
2022/10/16 05:44:46;;;;;;;;;;;;;;;13.30;62.89;100217.56;4370123;32;34962;-89
2022/10/16 05:47:20;;;;;;;;;;;;;;;13.33;62.69;100217.50;4370275;32;34154;-87
2022/10/16 05:49:49;;;;;;;;;;;;;;;13.41;62.48;100223.47;4368838;32;32721;-90
2022/10/16 05:52:25;;;;;;;;;;;;;;;13.38;62.68;100223.50;4375715;32;33981;-89
2022/10/16 05:54:54;;;;;;;;;;;;;;;13.37;62.73;100226.16;4361686;32;33581;-89
2022/10/16 05:57:24;;;;;;;;;;;;;;;13.52;62.27;100228.50;4357234;32;34473;-88
2022/10/16 05:59:53;;;;;;;;;;;;;;;13.43;62.68;100231.25;4369562;32;32249;-87
2022/10/16 06:02:25;;;;;;;;;;;;;;;13.41;62.96;100236.50;4376093;32;34288;-88
2022/10/16 06:04:54;;;;;;;;;;;;;;;13.37;63.30;100234.81;4376437;32;33746;-89
2022/10/16 06:07:28;;;;;;;;;;;;;;;13.39;63.37;100234.81;4363530;32;34375;-88
2022/10/16 06:09:57;;;;;;;;;;;;;;;13.42;63.31;100239.97;4369716;32;33170;-90
2022/10/16 06:12:29;;;;;;;;;;;;;;;13.61;62.69;100257.03;4375468;32;33848;-90
2022/10/16 06:14:57;;;;;;;;;;;;;;;13.62;62.92;100256.12;4376519;32;35225;-89
2022/10/16 06:17:29;;;;;;;;;;;;;;;13.70;63.02;100262.94;4364659;32;34390;-90
2022/10/16 06:19:58;;;;;;;;;;;;;;;13.78;62.96;100250.66;4357964;32;33052;-87
2022/10/16 06:22:26;;;;;;;;;;;;;;;13.89;62.65;100261.75;4358279;32;34043;-88
2022/10/16 06:24:56;;;;;;;;;;;;;;;13.86;62.84;100267.03;4373332;32;33797;-89
2022/10/16 06:27:25;;;;;;;;;;;;;;;14.00;62.42;100272.88;4375501;32;34728;-88
2022/10/16 06:29:55;;;;;;;;;;;;;;;13.97;62.56;100275.53;4369016;32;32944;-91
2022/10/16 06:32:27;;;;;;;;;;;;;;;13.81;62.91;100285.34;4369273;32;34460;-89
2022/10/16 06:34:57;;;;;;;;;;;;;;;13.83;63.03;100293.16;4370766;32;33511;-87
2022/10/16 06:37:27;;;;;;;;;;;;;;;13.91;62.71;100291.28;4375727;32;34534;-89
2022/10/16 06:39:56;;;;;;;;;;;;;;;13.97;62.56;100283.34;4363759;32;34153;-87
2022/10/16 06:42:25;;;;;;;;;;;;;;;14.04;62.40;100282.38;4364840;32;33553;-87
2022/10/16 06:44:55;;;;;;;;;;;;;;;14.19;62.03;100288.19;4367166;32;34380;-91
2022/10/16 06:47:24;;;;;;;;;;;;;;;14.18;62.21;100289.94;4372371;32;33258;-88
2022/10/16 06:49:53;;;;;;;;;;;;;;;14.25;62.06;100301.97;4370282;32;32695;-87
2022/10/16 06:52:26;;;;;;;;;;;;;;;14.41;61.54;100304.31;4365714;32;32444;-89
2022/10/16 06:54:55;;;;;;;;;;;;;;;14.35;61.51;100313.09;4370531;32;34754;-87
2022/10/16 06:57:25;;;;;;;;;;;;;;;14.44;61.40;100317.28;4363335;32;33554;-87
2022/10/16 06:59:53;;;;;;;;;;;;;;;14.40;61.45;100318.22;4371934;32;34380;-89
2022/10/16 07:02:25;;;;;;;;;;;;;;;14.54;60.95;100318.87;4373115;32;34429;-89
2022/10/16 07:04:54;;;;;;;;;;;;;;;14.52;61.02;100316.28;4372170;32;33650;-88
2022/10/16 07:07:24;;;;;;;;;;;;;;;14.65;60.92;100316.06;4369974;32;34622;-90
2022/10/16 07:09:54;;;;;;;;;;;;;;;14.67;60.57;100312.53;4371884;32;32388;-88
2022/10/16 07:12:30;;;;;;;;;;;;;;;14.77;60.05;100315.81;4372737;32;34011;-93
2022/10/16 07:15:05;;;;;;;;;;;;;;;14.84;59.55;100327.00;4369366;32;34698;-91
2022/10/16 07:17:34;;;;;;;;;;;;;;;14.62;59.42;100337.03;4368121;32;34161;-88
2022/10/16 07:20:04;;;;;;;;;;;;;;;14.67;59.12;100337.78;4369790;32;33964;-90
2022/10/16 07:22:32;;;;;;;;;;;;;;;14.89;58.67;100330.38;4374805;32;35994;-92
2022/10/16 07:25:10;;;;;;;;;;;;;;;14.73;59.29;100340.25;4370635;32;34610;-89
2022/10/16 07:27:39;;;;;;;;;;;;;;;14.93;58.25;100334.63;4363242;32;33415;-88
2022/10/16 07:30:17;;;;;;;;;;;;;;;15.04;58.14;100334.41;4367367;32;34222;-86
2022/10/16 07:32:51;;;;;;;;;;;;;;;14.97;58.40;100343.28;4371601;32;33843;-88
2022/10/16 07:35:22;;;;;;;;;;;;;;;15.12;57.70;100337.72;4370612;32;33379;-89
2022/10/16 07:37:52;;;;;;;;;;;;;;;15.15;58.01;100335.06;4370097;32;33724;-89
2022/10/16 07:40:22;;;;;;;;;;;;;;;15.22;58.66;100330.53;4369046;32;33930;-88
2022/10/16 07:42:54;;;;;;;;;;;;;;;15.23;58.21;100333.13;4371313;32;33333;-89
2022/10/16 07:45:23;;;;;;;;;;;;;;;15.45;57.50;100341.34;4369313;32;34081;-88
2022/10/16 07:47:52;;;;;;;;;;;;;;;15.49;57.13;100336.91;4372172;32;31959;-88
2022/10/16 07:50:21;;;;;;;;;;;;;;;15.35;57.86;100351.16;4367584;32;32310;-92
2022/10/16 07:52:52;;;;;;;;;;;;;;;15.26;58.15;100351.34;4373500;32;34549;-92
2022/10/16 07:55:23;;;;;;;;;;;;;;;15.45;57.77;100350.94;4370344;32;33665;-89
2022/10/16 07:57:57;;;;;;;;;;;;;;;15.30;57.83;100363.47;4374059;32;33239;-90
2022/10/16 08:00:25;;;;;;;;;;;;;;;15.03;57.91;100364.03;4368364;32;34144;-89
2022/10/16 08:02:59;;;;;;;;;;;;;;;15.49;57.09;100371.75;4366290;32;34304;-93
2022/10/16 08:05:28;;;;;;;;;;;;;;;15.57;57.14;100372.44;4366916;32;33190;-91
2022/10/16 08:08:00;;;;;;;;;;;;;;;15.47;57.85;100367.47;4368792;32;32599;-89
2022/10/16 08:10:31;;;;;;;;;;;;;;;15.72;57.19;100371.25;4372965;32;32742;-88
2022/10/16 08:13:01;;;;;;;;;;;;;;;15.87;56.61;100375.25;4361455;32;33497;-89
2022/10/16 08:15:30;;;;;;;;;;;;;;;15.51;57.40;100377.81;4369283;32;34068;-93
2022/10/16 08:18:03;;;;;;;;;;;;;;;15.64;57.31;100383.63;4368662;32;33222;-92
2022/10/16 08:20:32;;;;;;;;;;;;;;;15.81;57.02;100380.66;4381950;32;33893;-91
2022/10/16 08:23:02;;;;;;;;;;;;;;;15.91;56.33;100384.75;4365231;32;34278;-92
2022/10/16 08:25:32;;;;;;;;;;;;;;;15.97;55.98;100379.41;4369021;32;32970;-88
2022/10/16 08:28:11;;;;;;;;;;;;;;;15.96;56.15;100392.50;4369619;32;33908;-90
2022/10/16 08:30:39;;;;;;;;;;;;;;;16.03;55.86;100391.47;4364879;32;32575;-88
2022/10/16 08:33:44;;;;;;;;;;;;;;;15.99;56.57;100395.94;4365666;32;33785;-88
2022/10/16 08:36:38;;;;;;;;;;;;;;;15.79;57.41;100401.59;4365398;32;34126;-88
2022/10/16 08:39:24;;;;;;;;;;;;;;;16.09;55.71;100401.78;4369070;32;34106;-92
2022/10/16 08:42:49;;;;;;;;;;;;;;;16.38;55.32;100403.69;4362481;32;33429;-88
2022/10/16 08:45:35;;;;;;;;;;;;;;;16.39;55.82;100401.91;4342514;32;33721;-89
2022/10/16 08:48:36;;;;;;;;;;;;;;;16.41;55.28;100400.13;4329139;32;36119;-89
2022/10/16 08:51:05;;;;;;;;;;;;;;;16.58;55.59;100395.28;4371540;32;37355;-88
2022/10/16 08:53:36;;;;;;;;;;;;;;;16.66;55.39;100404.72;4362727;32;32324;-90
2022/10/16 08:56:05;;;;;;;;;;;;;;;16.59;55.17;100401.38;4364282;32;33364;-92
2022/10/16 08:58:38;;;;;;;;;;;;;;;16.65;55.03;100406.47;4376638;32;34165;-90
2022/10/16 09:01:12;;;;;;;;;;;;;;;16.59;54.81;100402.25;4366270;32;33661;-89
2022/10/16 09:04:02;;;;;;;;;;;;;;;16.63;55.16;100414.38;4368420;32;33642;-89
2022/10/16 09:06:38;;;;;;;;;;;;;;;16.83;53.60;100416.47;4367532;32;33178;-90
2022/10/16 09:09:30;;;;;;;;;;;;;;;16.88;54.37;100421.59;4372980;32;34280;-91
2022/10/16 09:12:00;;;;;;;;;;;;;;;16.70;54.65;100422.06;4376779;32;36512;-89
2022/10/16 09:14:36;;;;;;;;;;;;;;;16.73;54.89;100419.38;4364244;32;33279;-87
2022/10/16 09:17:09;;;;;;;;;;;;;;;16.98;54.58;100416.94;4365827;32;33167;-89
2022/10/16 09:19:39;;;;;;;;;;;;;;;17.06;53.98;100426.34;4366221;32;33589;-92
2022/10/16 09:22:10;;;;;;;;;;;;;;;16.98;53.52;100430.91;4370918;32;33743;-90
2022/10/16 09:24:39;;;;;;;;;;;;;;;16.67;54.29;100416.91;4361794;32;33433;-93
2022/10/16 09:27:12;;;;;;;;;;;;;;;16.94;54.53;100420.59;4355673;32;33245;-91
2022/10/16 09:29:40;;;;;;;;;;;;;;;17.21;54.26;100405.81;4356031;32;35160;-92
2022/10/16 09:32:12;;;;;;;;;;;;;;;17.21;55.66;100411.91;4358127;32;34218;-91
2022/10/16 09:34:46;;;;;;;;;;;;;;;17.30;54.94;100413.44;4360632;32;31288;-91
2022/10/16 09:37:17;;;;;;;;;;;;;;;17.45;53.80;100412.12;4376718;32;34524;-89
2022/10/16 09:39:49;;;;;;;;;;;;;;;17.55;53.31;100420.56;4372013;32;34472;-89
2022/10/16 09:42:25;;;;;;;;;;;;;;;17.73;52.93;100414.72;4383191;32;32908;-91
2022/10/16 09:44:57;;;;;;;;;;;;;;;17.85;52.91;100414.38;4370427;32;32503;-89
2022/10/16 09:47:28;;;;;;;;;;;;;;;17.71;53.65;100419.19;4376970;32;34613;-90
2022/10/16 09:50:01;;;;;;;;;;;;;;;17.89;52.87;100423.87;4387621;32;33134;-89
2022/10/16 09:52:30;;;;;;;;;;;;;;;17.91;52.39;100427.31;4375407;32;33697;-89
2022/10/16 09:55:03;;;;;;;;;;;;;;;17.98;53.12;100424.50;4372370;32;33905;-89
2022/10/16 09:57:31;;;;;;;;;;;;;;;18.16;51.61;100438.81;4371624;32;33996;-92
2022/10/16 10:00:03;;;;;;;;;;;;;;;18.19;51.75;100439.53;4376077;32;34577;-90
2022/10/16 10:02:35;;;;;;;;;;;;;;;18.32;51.15;100442.66;4368328;32;33578;-92
2022/10/16 10:05:05;;;;;;;;;;;;;;;18.25;51.67;100433.25;4368549;32;33235;-90
2022/10/16 10:07:36;;;;;;;;;;;;;;;18.56;51.16;100443.59;4370831;32;33347;-88
2022/10/16 10:10:06;;;;;;;;;;;;;;;18.16;51.67;100437.03;4372591;32;33908;-89
2022/10/16 10:12:36;;;;;;;;;;;;;;;18.23;51.28;100433.28;4362824;32;33760;-90
2022/10/16 10:15:10;;;;;;;;;;;;;;;18.37;51.29;100429.38;4354594;32;33833;-91
2022/10/16 10:17:51;;;;;;;;;;;;;;;18.60;51.17;100429.41;4354660;32;34219;-91
2022/10/16 10:20:23;;;;;;;;;;;;;;;18.52;51.23;100411.28;4356911;32;34326;-89
2022/10/16 10:23:00;;;;;;;;;;;;;;;18.78;50.86;100406.94;4355722;32;35001;-89
2022/10/16 10:25:36;;;;;;;;;;;;;;;18.85;50.21;100416.31;4360108;32;34395;-90
2022/10/16 10:28:08;;;;;;;;;;;;;;;18.67;50.93;100420.41;4364027;32;33189;-90
2022/10/16 10:30:43;;;;;;;;;;;;;;;19.01;50.48;100419.25;4369405;32;33403;-91
2022/10/16 10:33:25;;;;;;;;;;;;;;;19.00;50.19;100414.06;4373386;32;33651;-87
2022/10/16 10:35:57;;;;;;;;;;;;;;;18.91;51.01;100408.19;4365877;32;33428;-90
2022/10/16 10:38:32;;;;;;;;;;;;;;;19.00;51.37;100408.81;4370568;32;33960;-93
2022/10/16 10:41:05;;;;;;;;;;;;;;;19.23;50.45;100400.03;4380929;32;33153;-89
2022/10/16 10:43:42;;;;;;;;;;;;;;;19.25;50.08;100396.44;4371317;32;34891;-89
2022/10/16 10:46:13;;;;;;;;;;;;;;;19.19;49.66;100401.94;4371650;32;32897;-91
2022/10/16 10:48:57;;;;;;;;;;;;;;;19.31;49.57;100404.13;4373204;32;33074;-89
2022/10/16 10:51:31;;;;;;;;;;;;;;;19.37;49.57;100403.00;4351298;32;35346;-90
2022/10/16 10:54:11;;;;;;;;;;;;;;;19.40;49.78;100408.16;4355978;32;33473;-89
2022/10/16 10:56:42;;;;;;;;;;;;;;;19.54;49.76;100403.22;4354751;32;32813;-92
2022/10/16 10:59:34;;;;;;;;;;;;;;;19.55;50.07;100410.22;4360023;32;34219;-89
2022/10/16 11:02:03;;;;;;;;;;;;;;;19.74;49.04;100407.75;4324740;33;34215;-92
2022/10/16 11:04:48;;;;;;;;;;;;;;;19.78;49.66;100408.47;4330370;33;34719;-92
2022/10/16 11:07:19;;;;;;;;;;;;;;;19.86;48.68;100403.78;4331520;33;34484;-89
2022/10/16 11:09:48;;;;;;;;;;;;;;;19.88;48.20;100407.19;4324637;33;33951;-93
2022/10/16 11:12:21;;;;;;;;;;;;;;;19.92;49.06;100403.50;4327964;33;34602;-87
2022/10/16 11:14:51;;;;;;;;;;;;;;;19.88;48.30;100401.91;4324064;33;34856;-92
2022/10/16 11:17:30;;;;;;;;;;;;;;;20.07;48.44;100401.19;4316598;33;34656;-89
2022/10/16 11:20:03;;;;;;;;;;;;;;;19.75;48.37;100400.69;4328617;33;33814;-90
2022/10/16 11:22:35;;;;;;;;;;;;;;;19.96;47.69;100391.09;4328155;33;34779;-89
2022/10/16 11:25:12;;;;;;;;;;;;;;;20.26;47.42;100396.84;4319979;33;33517;-89
2022/10/16 11:27:45;;;;;;;;;;;;;;;20.07;48.02;100394.13;4337702;33;33892;-89
2022/10/16 11:30:15;;;;;;;;;;;;;;;20.12;48.29;100391.31;4330723;33;33109;-89
2022/10/16 11:32:49;;;;;;;;;;;;;;;20.02;47.23;100383.78;4339745;33;34129;-93
2022/10/16 11:35:21;;;;;;;;;;;;;;;20.19;47.00;100379.59;4324014;33;32298;-92
2022/10/16 11:38:00;;;;;;;;;;;;;;;20.12;47.24;100386.88;4324891;33;32785;-91
2022/10/16 11:40:29;;;;;;;;;;;;;;;20.48;47.34;100388.03;4356551;32;32772;-92
2022/10/16 11:42:59;;;;;;;;;;;;;;;20.31;47.09;100394.88;4374304;32;34808;-94
2022/10/16 11:45:34;;;;;;;;;;;;;;;20.49;46.96;100390.63;4368203;32;35185;-88
2022/10/16 11:48:03;;;;;;;;;;;;;;;20.45;46.65;100396.94;4369824;32;32551;-92
2022/10/16 11:50:38;;;;;;;;;;;;;;;20.45;46.05;100395.16;4368288;32;34228;-90
2022/10/16 11:53:16;;;;;;;;;;;;;;;20.55;45.63;100392.13;4369662;32;33293;-89
2022/10/16 11:55:46;;;;;;;;;;;;;;;20.46;46.78;100396.87;4375405;32;34845;-89
2022/10/16 11:58:19;;;;;;;;;;;;;;;20.50;46.01;100399.37;4360877;32;34306;-89
2022/10/16 12:00:48;;;;;;;;;;;;;;;20.74;45.73;100390.44;4355224;32;34053;-93
2022/10/16 12:03:20;;;;;;;;;;;;;;;20.81;45.33;100389.22;4360391;32;34008;-90
2022/10/16 12:05:53;;;;;;;;;;;;;;;20.94;46.02;100381.62;4362315;32;36092;-94
2022/10/16 12:08:26;;;;;;;;;;;;;;;20.92;45.60;100380.81;4372438;32;33672;-89
2022/10/16 12:11:04;;;;;;;;;;;;;;;21.02;45.39;100376.88;4365143;32;34590;-89
2022/10/16 12:13:35;;;;;;;;;;;;;;;21.12;44.75;100374.66;4369392;32;33407;-91
2022/10/16 12:16:07;;;;;;;;;;;;;;;21.18;45.06;100376.16;4363991;32;34892;-92
2022/10/16 12:18:37;;;;;;;;;;;;;;;21.10;44.67;100369.44;4365373;32;33446;-89
2022/10/16 12:21:07;;;;;;;;;;;;;;;21.38;45.11;100367.31;4368580;32;34598;-90
2022/10/16 12:23:39;;;;;;;;;;;;;;;21.41;44.69;100370.69;4365616;32;36581;-94
2022/10/16 12:26:13;;;;;;;;;;;;;;;21.37;45.31;100370.88;4369621;32;33823;-92
2022/10/16 12:28:48;;;;;;;;;;;;;;;21.30;44.46;100363.25;4368128;32;34021;-88
2022/10/16 12:31:20;;;;;;;;;;;;;;;21.38;45.78;100365.50;4375846;32;33721;-88
2022/10/16 12:34:03;;;;;;;;;;;;;;;21.20;45.32;100361.97;4374914;32;34030;-89
2022/10/16 12:36:34;;;;;;;;;;;;;;;21.31;45.64;100366.72;4371737;32;33770;-91
2022/10/16 12:39:04;;;;;;;;;;;;;;;21.37;46.10;100369.09;4368642;32;33373;-89
2022/10/16 12:41:37;;;;;;;;;;;;;;;21.24;45.54;100363.53;4374647;32;33600;-89
2022/10/16 12:44:06;;;;;;;;;;;;;;;21.29;45.40;100360.69;4373241;32;34140;-93
2022/10/16 12:46:39;;;;;;;;;;;;;;;21.27;45.84;100359.91;4367117;32;33195;-91
2022/10/16 12:49:21;;;;;;;;;;;;;;;21.09;46.17;100364.22;4366256;32;33972;-90
2022/10/16 12:51:50;;;;;;;;;;;;;;;21.47;44.77;100357.19;4376773;32;35059;-89
2022/10/16 12:54:21;;;;;;;;;;;;;;;21.21;45.28;100358.38;4365649;32;34245;-93
2022/10/16 12:56:53;;;;;;;;;;;;;;;21.38;45.43;100359.37;4368706;32;31923;-90
2022/10/16 12:59:27;;;;;;;;;;;;;;;21.27;44.91;100363.38;4364788;32;33591;-89
2022/10/16 13:02:04;;;;;;;;;;;;;;;21.37;44.90;100373.53;4366316;32;33494;-91
2022/10/16 13:05:09;;;;;;;;;;;;;;;21.31;45.26;100375.53;4362530;32;32650;-91